Time;durP1;ratioP1;P1;durP2;ratioP2;P2;SDS_P1;SDS_P2;PMS_P1;PMS_P2;Temp;Humidity;BMP_temperature;BMP_pressure;BME280_temperature;BME280_humidity;BME280_pressure;Samples;Min_cycle;Max_cycle;Signal;HPM_P1;HPM_P2
2022/11/15 00:00:47;;;;;;;82.25;27.80;;;;;;;7.93;100.00;100508.75;5080726;28;20069;-81
2022/11/15 00:03:14;;;;;;;85.93;29.88;;;;;;;8.09;100.00;100532.03;5064917;28;20056;-82
2022/11/15 00:05:40;;;;;;;74.90;29.25;;;;;;;8.10;100.00;100533.78;5080388;28;20032;-81
2022/11/15 00:08:09;;;;;;;90.47;28.88;;;;;;;7.93;100.00;100495.97;5100734;28;20059;-81
2022/11/15 00:10:35;;;;;;;79.05;28.70;;;;;;;8.00;100.00;100507.28;5081354;28;20392;-81
2022/11/15 00:13:05;;;;;;;75.75;26.38;;;;;;;8.15;100.00;100528.00;5082684;28;20035;-82
2022/11/15 00:15:31;;;;;;;83.72;27.30;;;;;;;8.21;100.00;100527.50;5050817;28;20473;-82
2022/11/15 00:17:56;;;;;;;78.72;28.30;;;;;;;8.27;100.00;100532.50;5063872;28;20043;-80
2022/11/15 00:20:22;;;;;;;73.65;28.23;;;;;;;8.18;100.00;100519.59;5060108;28;20048;-81
2022/11/15 00:22:47;;;;;;;86.80;29.30;;;;;;;8.27;100.00;100518.88;5031116;28;20062;-81
2022/11/15 00:25:13;;;;;;;87.35;29.98;;;;;;;8.33;100.00;100506.66;5064090;28;20111;-83
2022/11/15 00:27:38;;;;;;;83.90;30.23;;;;;;;8.41;100.00;100516.97;5079202;28;20388;-80
2022/11/15 00:30:04;;;;;;;80.15;29.20;;;;;;;8.43;100.00;100524.09;5073346;28;20046;-82
2022/11/15 00:32:33;;;;;;;72.88;28.92;;;;;;;8.46;100.00;100507.50;5101197;28;20036;-82
2022/11/15 00:34:58;;;;;;;73.85;28.23;;;;;;;8.56;100.00;100515.84;5051525;28;20032;-82
2022/11/15 00:37:24;;;;;;;84.38;29.50;;;;;;;8.55;100.00;100514.09;5082957;28;20475;-82
2022/11/15 00:39:49;;;;;;;80.40;29.17;;;;;;;8.40;100.00;100480.63;5083729;28;20494;-82
2022/11/15 00:42:15;;;;;;;90.80;31.52;;;;;;;8.66;100.00;100518.75;5100779;28;20032;-81
2022/11/15 00:44:40;;;;;;;84.97;30.08;;;;;;;8.72;100.00;100515.50;5079763;28;20063;-82
2022/11/15 00:47:06;;;;;;;81.30;30.25;;;;;;;8.58;100.00;100492.03;5079402;28;20131;-82
2022/11/15 00:49:32;;;;;;;79.50;30.17;;;;;;;8.63;100.00;100497.13;5079124;28;20062;-82
2022/11/15 00:51:57;;;;;;;95.03;30.02;;;;;;;8.78;100.00;100506.00;5079386;28;20043;-80
2022/11/15 00:54:23;;;;;;;92.50;31.65;;;;;;;8.68;100.00;100488.59;5065249;28;20181;-81
2022/11/15 00:56:48;;;;;;;91.65;29.98;;;;;;;8.78;100.00;100506.00;5080460;28;20444;-81
2022/11/15 00:59:14;;;;;;;105.97;33.03;;;;;;;8.87;100.00;100499.84;5080395;28;20051;-81
2022/11/15 01:01:39;;;;;;;96.32;32.17;;;;;;;8.87;100.00;100499.84;5080794;28;20503;-82
2022/11/15 01:04:05;;;;;;;93.05;31.33;;;;;;;8.88;100.00;100504.28;5063603;28;20024;-83
2022/11/15 01:06:31;;;;;;;97.32;34.05;;;;;;;8.70;100.00;100470.25;5080427;28;20032;-81
2022/11/15 01:08:57;;;;;;;110.68;37.20;;;;;;;8.86;100.00;100494.50;5063203;28;20028;-81
2022/11/15 01:11:22;;;;;;;108.57;35.15;;;;;;;8.85;100.00;100495.47;5063652;28;20395;-82
2022/11/15 01:13:48;;;;;;;115.28;36.13;;;;;;;8.85;100.00;100498.22;5065556;28;20098;-79
2022/11/15 01:16:17;;;;;;;108.05;35.22;;;;;;;8.86;100.00;100502.69;5048475;28;20032;-81
2022/11/15 01:18:43;;;;;;;115.78;36.70;;;;;;;8.91;100.00;100493.13;5077940;28;20028;-82
2022/11/15 01:21:14;;;;;;;111.00;34.78;;;;;;;8.87;100.00;100490.75;5078017;28;20692;-81
2022/11/15 01:23:41;;;;;;;126.55;35.75;;;;;;;8.93;100.00;100490.28;5097950;28;20024;-80
2022/11/15 01:26:11;;;;;;;120.43;37.30;;;;;;;8.86;100.00;100483.56;5082134;28;20036;-81
2022/11/15 01:28:38;;;;;;;124.32;37.97;;;;;;;8.96;100.00;100490.06;5098264;28;20071;-81
2022/11/15 01:31:08;;;;;;;141.60;40.72;;;;;;;8.90;100.00;100485.91;5098438;28;20035;-81
2022/11/15 01:33:38;;;;;;;140.63;39.55;;;;;;;8.95;100.00;100485.56;5081060;28;20395;-81
2022/11/15 01:36:05;;;;;;;129.43;40.10;;;;;;;8.91;100.00;100482.22;5076415;28;20027;-82
2022/11/15 01:38:31;;;;;;;136.90;41.15;;;;;;;9.00;100.00;100480.63;5078202;28;20036;-80
2022/11/15 01:40:57;;;;;;;139.40;41.10;;;;;;;8.96;100.00;100471.78;5064624;28;20035;-80
2022/11/15 01:43:25;;;;;;;141.52;42.08;;;;;;;8.98;100.00;100475.28;5064844;28;20036;-80
2022/11/15 01:46:06;;;;;;;151.40;40.97;;;;;;;9.00;100.00;100467.84;5081099;28;20384;-81
2022/11/15 01:48:34;;;;;;;159.05;44.30;;;;;;;9.02;100.00;100467.72;5098565;28;20031;-80
2022/11/15 01:51:02;;;;;;;137.50;40.03;;;;;;;9.03;100.00;100464.00;5078485;28;20043;-82
2022/11/15 01:53:29;;;;;;;148.05;42.13;;;;;;;9.10;100.00;100464.38;5050994;28;20067;-81
2022/11/15 01:55:55;;;;;;;134.85;40.67;;;;;;;9.08;100.00;100449.97;5061800;28;20083;-81
2022/11/15 01:58:22;;;;;;;147.35;40.15;;;;;;;9.22;100.00;100459.81;5094762;28;20455;-81
2022/11/15 02:00:49;;;;;;;128.80;40.08;;;;;;;9.26;100.00;100459.41;5067869;28;20032;-80
2022/11/15 02:03:15;;;;;;;143.43;41.72;;;;;;;9.22;100.00;100452.47;5080327;28;20049;-81
2022/11/15 02:05:43;;;;;;;132.77;40.83;;;;;;;9.29;100.00;100463.78;5054082;28;20029;-81
2022/11/15 02:08:22;;;;;;;133.60;40.05;;;;;;;9.31;100.00;100459.94;5060622;28;20424;-81
2022/11/15 02:10:48;;;;;;;116.03;36.47;;;;;;;9.37;100.00;100462.16;5077312;28;20060;-82
2022/11/15 02:13:16;;;;;;;116.85;35.88;;;;;;;9.37;100.00;100464.03;5064948;28;20040;-81
2022/11/15 02:16:15;;;;;;;116.55;36.25;;;;;;;9.40;100.00;100460.19;5060468;28;20145;-80
2022/11/15 02:18:55;;;;;;;108.88;36.25;;;;;;;9.49;100.00;100463.03;5080049;28;20036;-82
2022/11/15 02:22:05;;;;;;;100.55;33.40;;;;;;;9.56;100.00;100463.44;5060290;28;20039;-81
2022/11/15 02:24:43;;;;;;;98.63;32.50;;;;;;;9.65;100.00;100459.94;5047772;28;20039;-81
2022/11/15 02:27:20;;;;;;;90.97;33.40;;;;;;;9.65;100.00;100449.00;5080524;28;20123;-81
2022/11/15 02:29:52;;;;;;;82.55;30.67;;;;;;;9.68;100.00;100451.47;5096728;28;20046;-80
2022/11/15 02:32:25;;;;;;;64.25;28.50;;;;;;;9.70;100.00;100451.34;5096630;28;20055;-82
2022/11/15 02:35:03;;;;;;;64.68;27.05;;;;;;;9.69;100.00;100455.97;5080044;28;20123;-81
2022/11/15 02:37:28;;;;;;;77.53;26.98;;;;;;;9.81;100.00;100453.22;5096711;28;20016;-80
2022/11/15 02:40:12;;;;;;;62.25;25.98;;;;;;;9.85;100.00;100447.34;5078566;28;20127;-81
2022/11/15 02:45:35;;;;;;;62.58;24.25;;;;;;;9.85;100.00;100444.59;5097972;28;20387;-80
2022/11/15 02:48:03;;;;;;;44.00;22.77;;;;;;;9.85;100.00;100444.59;5118782;28;20036;-81
2022/11/15 02:50:31;;;;;;;48.08;23.00;;;;;;;9.92;100.00;100445.00;5082395;28;20063;-81
2022/11/15 02:52:57;;;;;;;48.65;22.77;;;;;;;9.89;100.00;100439.78;5084069;28;20034;-81
2022/11/15 02:55:34;;;;;;;46.53;22.92;;;;;;;9.90;100.00;100436.91;5083796;28;20031;-81
2022/11/15 02:58:18;;;;;;;42.53;22.13;;;;;;;9.92;100.00;100431.31;5100465;28;20435;-79
2022/11/15 03:01:06;;;;;;;41.00;20.90;;;;;;;9.96;100.00;100432.78;5083831;28;20027;-81
2022/11/15 03:03:58;;;;;;;43.53;20.08;;;;;;;9.95;100.00;100431.03;5063099;28;20028;-80
2022/11/15 03:06:45;;;;;;;36.15;18.73;;;;;;;9.98;100.00;100419.84;5064217;28;20398;-81
2022/11/15 03:09:32;;;;;;;35.10;19.00;;;;;;;10.01;100.00;100416.84;5064097;28;20043;-81
2022/11/15 03:12:32;;;;;;;41.33;18.15;;;;;;;10.02;100.00;100412.25;5080022;28;20024;-80
2022/11/15 03:15:15;;;;;;;43.05;18.25;;;;;;;10.07;100.00;100410.03;5032954;28;20089;-80
2022/11/15 03:17:50;;;;;;;34.13;18.67;;;;;;;10.06;100.00;100403.66;5069212;28;20016;-80
2022/11/15 03:20:17;;;;;;;41.75;17.90;;;;;;;10.10;100.00;100398.78;5106339;28;20114;-80
2022/11/15 03:22:45;;;;;;;31.70;17.52;;;;;;;10.21;100.00;100411.56;5083531;28;20058;-81
2022/11/15 03:25:18;;;;;;;33.28;17.52;;;;;;;10.13;100.00;100409.47;5100102;28;20040;-82
2022/11/15 03:27:50;;;;;;;30.05;17.55;;;;;;;10.20;100.00;100413.44;5100627;28;20425;-81
2022/11/15 03:30:16;;;;;;;35.92;17.08;;;;;;;10.07;100.00;100401.81;5097146;28;20031;-80
2022/11/15 03:33:00;;;;;;;33.08;16.40;;;;;;;10.11;100.00;100389.59;5099982;28;20047;-82
2022/11/15 03:35:30;;;;;;;29.50;16.60;;;;;;;10.20;100.00;100398.88;5100211;28;20112;-80
2022/11/15 03:38:12;;;;;;;30.85;17.42;;;;;;;10.08;100.00;100379.81;5082513;28;20035;-81
2022/11/15 03:40:40;;;;;;;36.38;17.27;;;;;;;10.21;100.00;100408.84;5079816;28;20077;-80
2022/11/15 03:43:20;;;;;;;30.10;17.55;;;;;;;10.26;100.00;100414.78;5063987;28;20119;-81
2022/11/15 03:45:54;;;;;;;33.75;17.10;;;;;;;10.24;100.00;100419.53;5066747;28;20480;-80
2022/11/15 03:48:33;;;;;;;27.92;15.30;;;;;;;10.18;100.00;100401.75;5084695;28;20028;-81
2022/11/15 03:50:59;;;;;;;25.48;16.35;;;;;;;10.22;100.00;100414.19;5086505;28;20032;-81
2022/11/15 03:53:25;;;;;;;29.45;16.88;;;;;;;10.20;100.00;100410.72;5103581;28;20050;-81
2022/11/15 03:55:50;;;;;;;35.85;16.67;;;;;;;10.26;100.00;100414.78;5086797;28;20502;-81
2022/11/15 03:58:19;;;;;;;30.80;15.93;;;;;;;10.20;100.00;100396.16;5104696;28;20100;-81
2022/11/15 04:00:45;;;;;;;26.90;16.40;;;;;;;10.36;100.00;100417.63;5083727;28;20055;-81
2022/11/15 04:03:11;;;;;;;24.95;16.85;;;;;;;10.25;100.00;100410.34;5050788;28;20028;-81
2022/11/15 04:05:36;;;;;;;29.10;16.13;;;;;;;10.27;100.00;100408.31;5102528;28;20043;-81
2022/11/15 04:08:02;;;;;;;30.90;16.38;;;;;;;10.37;100.00;100411.19;5069666;28;20039;-80
2022/11/15 04:10:28;;;;;;;27.50;16.17;;;;;;;10.26;100.00;100412.03;5069699;28;20100;-81
2022/11/15 04:12:53;;;;;;;30.45;16.98;;;;;;;10.30;100.00;100419.00;5080111;28;20036;-80
2022/11/15 04:15:23;;;;;;;29.33;15.45;;;;;;;10.33;100.00;100417.91;5096969;28;20128;-80
2022/11/15 04:17:50;;;;;;;28.60;16.55;;;;;;;10.37;100.00;100416.66;5086040;28;20019;-83
2022/11/15 04:25:55;;;;;;;33.58;15.52;;;;;;;10.43;100.00;100421.59;5120453;28;20114;-81
2022/11/15 04:28:22;;;;;;;28.13;16.00;;;;;;;10.32;100.00;100408.81;5103436;28;20055;-81
2022/11/15 04:30:47;;;;;;;28.83;16.15;;;;;;;10.38;100.00;100415.63;5103757;28;20152;-80
2022/11/15 04:33:13;;;;;;;28.90;16.45;;;;;;;10.37;100.00;100406.56;5086124;28;20148;-81
2022/11/15 04:35:39;;;;;;;27.25;15.40;;;;;;;10.37;100.00;100398.34;5069968;28;20032;-83
2022/11/15 04:38:06;;;;;;;26.17;16.35;;;;;;;10.32;100.00;100395.16;5097229;28;20517;-83
2022/11/15 04:40:31;;;;;;;27.67;16.08;;;;;;;10.39;100.00;100415.50;5087111;28;20047;-81
2022/11/15 04:42:57;;;;;;;27.42;15.93;;;;;;;10.37;100.00;100405.69;5087848;28;20035;-79
2022/11/15 04:45:23;;;;;;;31.75;16.42;;;;;;;10.36;100.00;100401.22;5088141;28;20089;-81
2022/11/15 04:47:48;;;;;;;34.08;16.83;;;;;;;10.44;100.00;100417.84;5069236;28;20036;-82
2022/11/15 04:50:15;;;;;;;31.05;16.63;;;;;;;10.50;100.00;100413.72;5066844;28;20044;-80
2022/11/15 04:52:43;;;;;;;28.23;15.88;;;;;;;10.42;100.00;100412.50;5048899;28;20442;-82
2022/11/15 04:55:12;;;;;;;33.83;17.73;;;;;;;10.44;100.00;100418.72;5066746;28;20476;-80
2022/11/15 04:57:38;;;;;;;30.67;17.13;;;;;;;10.42;100.00;100415.25;5082233;28;20096;-80
2022/11/15 05:00:06;;;;;;;30.52;17.05;;;;;;;10.38;100.00;100407.41;5098744;28;20072;-82
2022/11/15 05:05:17;;;;;;;37.28;18.58;;;;;;;10.37;100.00;100413.91;5104115;28;20035;-81
2022/11/15 05:07:42;;;;;;;40.17;19.95;;;;;;;10.34;100.00;100401.34;5102127;28;20047;-81
2022/11/15 05:10:08;;;;;;;36.33;18.27;;;;;;;10.33;100.00;100407.84;5083958;28;20101;-80
2022/11/15 05:12:34;;;;;;;39.92;19.02;;;;;;;10.28;100.00;100410.94;5081052;28;20044;-80
2022/11/15 05:15:00;;;;;;;42.08;21.08;;;;;;;10.27;100.00;100414.66;5100960;28;20469;-79
2022/11/15 05:17:25;;;;;;;42.08;19.10;;;;;;;10.28;100.00;100413.66;5084524;28;20098;-79
2022/11/15 05:19:51;;;;;;;40.75;19.92;;;;;;;10.27;100.00;100411.91;5088010;28;20035;-80
2022/11/15 05:22:17;;;;;;;36.33;19.55;;;;;;;10.23;100.00;100407.72;5088712;28;20043;-80
2022/11/15 05:24:43;;;;;;;41.63;20.00;;;;;;;10.37;100.00;100406.56;5080890;28;20036;-78
2022/11/15 05:27:09;;;;;;;40.33;20.00;;;;;;;10.37;100.00;100402.97;5088421;28;20046;-79
2022/11/15 05:29:35;;;;;;;36.50;19.85;;;;;;;10.23;100.00;100390.41;5084777;28;20044;-78
2022/11/15 05:32:00;;;;;;;44.22;19.98;;;;;;;10.27;100.00;100395.50;5083656;28;20090;-78
2022/11/15 05:34:26;;;;;;;40.63;20.08;;;;;;;10.35;100.00;100394.88;5066928;28;20031;-77
2022/11/15 05:36:52;;;;;;;46.45;20.63;;;;;;;10.32;100.00;100400.63;5101911;28;20544;-79
2022/11/15 05:39:18;;;;;;;39.60;20.45;;;;;;;10.37;100.00;100395.63;5097331;28;20063;-79
2022/11/15 05:41:49;;;;;;;39.53;19.02;;;;;;;10.36;100.00;100390.28;5100724;28;20349;-78
2022/11/15 05:44:17;;;;;;;39.40;20.30;;;;;;;10.37;100.00;100386.53;5098400;28;20040;-80
2022/11/15 05:46:44;;;;;;;38.97;21.30;;;;;;;10.35;100.00;100396.75;5115975;28;20040;-80
2022/11/15 05:49:13;;;;;;;48.58;22.77;;;;;;;10.50;100.00;100395.44;5080963;28;20036;-80
2022/11/15 05:51:41;;;;;;;51.88;22.50;;;;;;;10.50;100.00;100394.56;5097179;28;20100;-81
2022/11/15 05:54:07;;;;;;;41.70;21.08;;;;;;;10.38;100.00;100394.63;5063917;28;20035;-82
2022/11/15 05:56:34;;;;;;;45.92;21.75;;;;;;;10.43;100.00;100395.09;5063289;28;20471;-79
2022/11/15 05:59:02;;;;;;;48.38;22.95;;;;;;;10.44;100.00;100393.22;5062497;28;20428;-79
2022/11/15 06:01:28;;;;;;;49.55;23.05;;;;;;;10.41;100.00;100388.00;5095735;28;20031;-80
2022/11/15 06:03:54;;;;;;;53.45;23.50;;;;;;;10.42;100.00;100393.34;5083402;28;20031;-80
2022/11/15 06:06:20;;;;;;;49.75;23.92;;;;;;;10.43;100.00;100394.25;5082453;28;20031;-79
2022/11/15 06:08:45;;;;;;;39.63;20.48;;;;;;;10.41;100.00;100394.38;5083287;28;20058;-80
2022/11/15 06:11:11;;;;;;;50.90;21.63;;;;;;;10.36;100.00;100402.06;5064519;28;20497;-80
2022/11/15 06:13:36;;;;;;;48.65;22.85;;;;;;;10.39;100.00;100399.06;5079303;28;20039;-79
2022/11/15 06:16:02;;;;;;;49.15;23.17;;;;;;;10.42;100.00;100403.44;5078950;28;20387;-77
2022/11/15 06:18:32;;;;;;;60.70;22.92;;;;;;;10.37;100.00;100406.56;5065436;28;20061;-79
2022/11/15 06:21:01;;;;;;;49.83;23.00;;;;;;;10.43;100.00;100392.34;5099458;28;20039;-78
2022/11/15 06:23:27;;;;;;;43.58;22.27;;;;;;;10.38;100.00;100393.75;5080001;28;20040;-78
2022/11/15 06:25:53;;;;;;;44.90;23.23;;;;;;;10.38;100.00;100401.94;5085015;28;20115;-77
2022/11/15 06:28:18;;;;;;;49.28;23.40;;;;;;;10.35;100.00;100394.03;5098046;28;20078;-78
2022/11/15 06:30:44;;;;;;;51.05;23.38;;;;;;;10.37;100.00;100398.34;5081303;28;20123;-80
2022/11/15 06:33:09;;;;;;;52.85;22.02;;;;;;;10.46;100.00;100414.00;5081284;28;20092;-77
2022/11/15 06:35:36;;;;;;;35.72;17.38;;;;;;;10.50;100.00;100400.91;5096392;28;20032;-79
2022/11/15 06:38:08;;;;;;;37.25;18.88;;;;;;;10.42;100.00;100408.91;5088331;28;20032;-78
2022/11/15 06:40:35;;;;;;;44.10;20.23;;;;;;;10.43;100.00;100417.00;5096572;28;20089;-78
2022/11/15 06:43:01;;;;;;;49.08;21.05;;;;;;;10.41;100.00;100412.63;5078845;28;20028;-79
2022/11/15 06:45:27;;;;;;;36.30;18.15;;;;;;;10.35;100.00;100425.00;5097458;28;20383;-78
2022/11/15 06:47:53;;;;;;;24.55;14.40;;;;;;;10.25;100.00;100419.41;5075797;28;20056;-79
2022/11/15 06:50:19;;;;;;;27.02;12.65;;;;;;;10.22;100.00;100427.84;5062151;28;20032;-78
2022/11/15 06:52:44;;;;;;;21.80;10.90;;;;;;;10.25;100.00;100443.16;5062555;28;20052;-80
2022/11/15 06:55:10;;;;;;;18.58;11.48;;;;;;;10.17;100.00;100432.84;5096406;28;20028;-78
2022/11/15 06:57:36;;;;;;;19.25;11.35;;;;;;;10.16;100.00;100436.56;5080393;28;20048;-78
2022/11/15 07:00:05;;;;;;;21.52;11.00;;;;;;;10.17;100.00;100445.69;5096844;28;20441;-82
2022/11/15 07:02:30;;;;;;;23.08;12.10;;;;;;;10.12;100.00;100446.91;5080838;28;20058;-78
2022/11/15 07:04:56;;;;;;;27.73;11.88;;;;;;;10.10;100.00;100450.75;5060341;28;20041;-80
2022/11/15 07:07:23;;;;;;;20.08;11.15;;;;;;;9.95;100.00;100436.50;5059395;28;20021;-79
2022/11/15 07:09:48;;;;;;;29.52;11.35;;;;;;;10.07;100.00;100459.25;5059502;28;20029;-80
2022/11/15 07:12:14;;;;;;;23.73;11.50;;;;;;;10.07;100.00;100468.31;5059741;28;20346;-79
2022/11/15 07:14:39;;;;;;;24.33;12.63;;;;;;;10.03;100.00;100465.97;5076138;28;20054;-80
2022/11/15 07:17:05;;;;;;;29.10;12.60;;;;;;;10.01;100.00;100465.22;5081049;28;20027;-80
2022/11/15 07:19:31;;;;;;;25.50;11.73;;;;;;;10.00;100.00;100467.09;5082986;28;20418;-79
2022/11/15 07:21:57;;;;;;;29.15;12.40;;;;;;;9.96;100.00;100465.59;5083629;28;20043;-80
2022/11/15 07:24:22;;;;;;;21.40;10.40;;;;;;;9.97;100.00;100475.56;5099995;28;20024;-79
2022/11/15 07:26:48;;;;;;;19.95;10.57;;;;;;;9.92;100.00;100469.59;5083958;28;20032;-80
2022/11/15 07:29:13;;;;;;;28.27;10.63;;;;;;;9.89;100.00;100472.59;5083917;28;20096;-80
2022/11/15 07:31:39;;;;;;;20.92;10.75;;;;;;;9.88;100.00;100470.84;5100059;28;20510;-80
2022/11/15 07:34:05;;;;;;;21.83;11.18;;;;;;;9.89;100.00;100475.31;5099041;28;20047;-79
2022/11/15 07:36:32;;;;;;;21.27;10.93;;;;;;;9.91;100.00;100476.06;5083303;28;20028;-80
2022/11/15 07:38:58;;;;;;;21.70;10.35;;;;;;;9.88;100.00;100471.69;5083798;28;20099;-79
2022/11/15 07:41:23;;;;;;;23.02;10.60;;;;;;;9.90;100.00;100480.66;5100340;28;20495;-78
2022/11/15 07:43:51;;;;;;;21.40;10.82;;;;;;;9.84;100.00;100478.44;5100138;28;20024;-78
2022/11/15 07:46:17;;;;;;;27.50;11.73;;;;;;;9.88;100.00;100482.63;5083777;28;20490;-79
2022/11/15 07:48:42;;;;;;;26.88;12.23;;;;;;;9.90;100.00;100486.13;5099697;28;20107;-79
2022/11/15 07:51:11;;;;;;;27.38;12.05;;;;;;;9.90;100.00;100485.25;5067926;28;20032;-80
2022/11/15 07:53:38;;;;;;;22.45;11.55;;;;;;;9.90;100.00;100483.41;5100917;28;20036;-80
2022/11/15 07:56:07;;;;;;;23.88;10.52;;;;;;;9.97;100.00;100493.81;5067815;28;20035;-80
2022/11/15 07:58:33;;;;;;;20.65;11.18;;;;;;;9.94;100.00;100484.88;5100269;28;20068;-80
2022/11/15 08:01:01;;;;;;;21.02;11.77;;;;;;;9.97;100.00;100482.88;5079440;28;20384;-79
2022/11/15 08:03:27;;;;;;;18.95;10.57;;;;;;;9.96;100.00;100479.28;5082641;28;20551;-79
2022/11/15 08:05:52;;;;;;;16.92;9.93;;;;;;;9.97;100.00;100482.88;5063908;28;20056;-80
2022/11/15 08:08:18;;;;;;;22.27;10.60;;;;;;;9.90;100.00;100480.66;5064367;28;20098;-79
2022/11/15 08:10:44;;;;;;;20.55;10.73;;;;;;;9.90;100.00;100471.56;5100547;28;20056;-79
2022/11/15 08:13:10;;;;;;;18.20;10.05;;;;;;;9.94;100.00;100482.13;5066686;28;20036;-79
2022/11/15 08:15:36;;;;;;;18.17;10.13;;;;;;;9.98;100.00;100476.41;5101826;28;20070;-78
2022/11/15 08:18:09;;;;;;;16.02;10.02;;;;;;;10.04;100.00;100470.44;5079144;28;20028;-79
2022/11/15 08:20:35;;;;;;;17.98;10.00;;;;;;;10.04;100.00;100475.91;5079690;28;20028;-79
2022/11/15 08:23:03;;;;;;;20.30;9.75;;;;;;;10.04;100.00;100473.19;5077427;28;20122;-80
2022/11/15 08:25:32;;;;;;;23.40;9.45;;;;;;;10.08;100.00;100475.53;5099610;28;20379;-79
2022/11/15 08:27:59;;;;;;;16.48;9.35;;;;;;;10.09;100.00;100477.25;5083404;28;20024;-79
2022/11/15 08:30:25;;;;;;;13.27;8.05;;;;;;;10.12;100.00;100478.88;5100423;28;20031;-80
2022/11/15 08:32:52;;;;;;;27.77;10.25;;;;;;;10.06;100.00;100468.44;5084672;28;20024;-80
2022/11/15 08:35:18;;;;;;;16.92;9.27;;;;;;;10.11;100.00;100472.53;5101916;28;20032;-80
2022/11/15 08:37:44;;;;;;;16.08;8.75;;;;;;;10.04;100.00;100471.31;5083547;28;20032;-79
2022/11/15 08:40:10;;;;;;;10.70;7.72;;;;;;;10.03;100.00;100477.75;5072258;28;20036;-80
2022/11/15 08:42:36;;;;;;;19.15;8.07;;;;;;;10.08;100.00;100488.31;5100304;28;20032;-80
2022/11/15 08:45:02;;;;;;;12.75;7.78;;;;;;;10.05;100.00;100483.09;5101306;28;20126;-79
2022/11/15 08:47:27;;;;;;;15.57;7.13;;;;;;;10.04;100.00;100489.59;5084078;28;20047;-81
2022/11/15 08:49:53;;;;;;;15.27;6.40;;;;;;;10.01;100.00;100474.28;5066441;28;20040;-80
2022/11/15 08:52:18;;;;;;;12.80;6.82;;;;;;;9.99;100.00;100467.22;5083429;28;20495;-81
2022/11/15 08:54:44;;;;;;;14.68;6.20;;;;;;;10.07;100.00;100464.72;5050955;28;20036;-79
2022/11/15 08:57:10;;;;;;;8.75;6.22;;;;;;;10.11;100.00;100460.72;5078503;28;20036;-81
2022/11/15 08:59:36;;;;;;;8.85;5.65;;;;;;;10.06;100.00;100458.38;5098696;28;20032;-79
2022/11/15 09:02:03;;;;;;;10.57;5.78;;;;;;;10.18;100.00;100455.59;5083590;28;20464;-80
2022/11/15 09:04:29;;;;;;;11.20;5.32;;;;;;;10.29;100.00;100453.69;5082111;28;20055;-79
2022/11/15 09:06:54;;;;;;;7.88;5.18;;;;;;;10.30;100.00;100440.91;5081126;28;20479;-79
2022/11/15 09:09:20;;;;;;;6.32;4.15;;;;;;;10.31;100.00;100453.56;5099558;28;20068;-80
2022/11/15 09:11:45;;;;;;;15.73;5.40;;;;;;;10.30;100.00;100443.63;5083686;28;20418;-80
2022/11/15 09:14:14;;;;;;;8.50;4.90;;;;;;;10.28;100.00;100429.19;5101514;28;20495;-79
2022/11/15 09:16:40;;;;;;;8.68;4.15;;;;;;;10.47;100.00;100440.34;5099958;28;20111;-79
2022/11/15 09:19:06;;;;;;;12.27;4.25;;;;;;;10.68;100.00;100439.50;5083327;28;20054;-80
2022/11/15 09:21:32;;;;;;;4.22;3.38;;;;;;;10.62;100.00;100427.19;5083883;28;20051;-79
2022/11/15 09:23:58;;;;;;;7.57;3.60;;;;;;;10.72;100.00;100435.50;5101498;28;20035;-80
2022/11/15 09:26:23;;;;;;;9.75;3.40;;;;;;;10.77;100.00;100436.00;5050203;28;20036;-79
2022/11/15 09:28:49;;;;;;;8.15;2.92;;;;;;;10.85;100.00;100427.97;5062928;28;20040;-80
2022/11/15 09:31:15;;;;;;;3.63;2.92;;;;;;;10.94;100.00;100419.94;5096938;28;20032;-79
2022/11/15 09:33:43;;;;;;;4.30;2.50;;;;;;;11.02;100.00;100421.00;5082192;28;20028;-81
2022/11/15 09:36:09;;;;;;;4.85;2.35;;;;;;;11.04;100.00;100404.44;5099909;28;20073;-80
2022/11/15 09:38:35;;;;;;;5.50;2.28;;;;;;;11.12;100.00;100403.75;5082704;28;20042;-81
2022/11/15 09:41:13;;;;;;;3.17;1.80;;;;;;;11.31;100.00;100412.03;5093457;28;20105;-80
2022/11/15 09:44:06;;;;;;;8.07;1.83;;;;;;;11.48;100.00;100410.53;5069274;28;20028;-81
2022/11/15 09:46:50;;;;;;;4.28;2.05;;;;;;;11.65;100.00;100406.25;5082815;28;20044;-80
2022/11/15 09:49:17;;;;;;;4.55;1.20;;;;;;;11.66;100.00;100399.78;5080667;28;20032;-79
2022/11/15 09:51:47;;;;;;;7.55;2.45;;;;;;;11.81;100.00;100407.63;5100438;28;20040;-80
2022/11/15 09:54:35;;;;;;;2.47;1.25;;;;;;;11.75;100.00;100403.56;5099847;28;20070;-80
2022/11/15 09:57:05;;;;;;;4.43;1.25;;;;;;;11.62;100.00;100402.94;5099846;28;20020;-80
2022/11/15 10:00:23;;;;;;;6.60;1.10;;;;;;;11.49;100.00;100404.03;5099515;28;20036;-81
2022/11/15 10:03:11;;;;;;;1.63;0.88;;;;;;;11.38;100.00;100398.69;5044020;28;20135;-80
2022/11/15 10:05:43;;;;;;;6.55;1.38;;;;;;;11.39;100.00;100390.28;5082735;28;20032;-81
2022/11/15 10:08:31;;;;;;;5.57;1.30;;;;;;;11.42;100.00;100391.91;5078975;28;20040;-80
2022/11/15 10:11:02;;;;;;;8.20;1.30;;;;;;;11.39;100.00;100398.53;5079759;28;20025;-81
2022/11/15 10:13:35;;;;;;;3.28;1.13;;;;;;;11.35;100.00;100390.75;5081939;28;20502;-81
2022/11/15 10:16:08;;;;;;;4.20;1.02;;;;;;;11.27;100.00;100385.06;5083543;28;20035;-80
2022/11/15 10:18:58;;;;;;;8.25;1.30;;;;;;;11.36;100.00;100386.97;5117825;28;20032;-81
2022/11/15 10:21:40;;;;;;;3.13;1.10;;;;;;;11.42;100.00;100386.41;5099436;28;20024;-80
2022/11/15 10:24:11;;;;;;;2.10;1.00;;;;;;;11.66;100.00;100387.94;5100862;28;20402;-81
2022/11/15 10:26:37;;;;;;;3.70;1.02;;;;;;;11.69;100.00;100382.16;5076044;28;20454;-81
2022/11/15 10:29:02;;;;;;;6.40;1.20;;;;;;;11.61;100.00;100382.00;5063177;28;20024;-82
2022/11/15 10:31:29;;;;;;;4.60;1.10;;;;;;;11.69;100.00;100373.94;5098369;28;20059;-80
2022/11/15 10:34:25;;;;;;;5.43;1.05;;;;;;;11.74;100.00;100364.28;5079182;28;20456;-83
2022/11/15 10:36:58;;;;;;;5.45;1.20;;;;;;;11.94;100.00;100375.34;5055217;28;20040;-82
2022/11/15 10:39:24;;;;;;;4.63;1.20;;;;;;;11.99;100.00;100370.28;5081855;28;20028;-80
2022/11/15 10:41:50;;;;;;;6.78;1.67;;;;;;;11.77;100.00;100376.84;5077075;28;20043;-81
2022/11/15 10:44:16;;;;;;;4.50;1.23;;;;;;;11.47;100.00;100367.69;5082339;28;20024;-81
2022/11/15 10:46:42;;;;;;;5.25;1.35;;;;;;;11.39;100.00;100371.09;5111122;28;20047;-81
2022/11/15 10:49:16;;;;;;;5.75;1.20;;;;;;;11.27;100.00;100360.41;5098917;28;20055;-82
2022/11/15 10:51:53;;;;;;;3.92;1.25;;;;;;;11.25;100.00;100360.56;5100281;28;20369;-81
2022/11/15 10:54:30;;;;;;;4.03;1.25;;;;;;;11.18;100.00;100362.09;5100304;28;20181;-82
2022/11/15 10:57:00;;;;;;;3.83;1.35;;;;;;;11.31;100.00;100356.38;5082049;28;20024;-81
2022/11/15 10:59:35;;;;;;;4.35;1.17;;;;;;;11.38;100.00;100363.91;5100437;28;20032;-81
2022/11/15 11:02:01;;;;;;;6.20;1.02;;;;;;;11.32;100.00;100352.63;5100379;28;20036;-82
2022/11/15 11:04:27;;;;;;;9.20;1.35;;;;;;;11.44;100.00;100358.88;5083941;28;20051;-81
2022/11/15 11:06:55;;;;;;;6.18;1.27;;;;;;;11.47;100.00;100361.34;5049885;28;20033;-81
2022/11/15 11:09:42;;;;;;;3.15;1.10;;;;;;;11.26;100.00;100348.56;5068975;28;20059;-82
2022/11/15 11:12:11;;;;;;;9.07;1.40;;;;;;;11.31;100.00;100337.19;5071674;28;20127;-81
2022/11/15 11:14:39;;;;;;;3.83;0.93;;;;;;;11.31;100.00;100343.53;5115981;28;20035;-81
2022/11/15 11:17:29;;;;;;;3.78;1.02;;;;;;;11.12;100.00;100336.13;5084731;28;20024;-81
2022/11/15 11:20:30;;;;;;;2.25;0.82;;;;;;;11.16;100.00;100345.78;5101042;28;20032;-82
2022/11/15 11:23:04;;;;;;;2.28;0.85;;;;;;;11.00;100.00;100343.56;5081629;28;20059;-81
2022/11/15 11:25:41;;;;;;;5.43;1.17;;;;;;;10.88;100.00;100338.31;5082983;28;20537;-81
2022/11/15 11:28:30;;;;;;;5.43;1.10;;;;;;;11.16;100.00;100328.47;5117331;28;20031;-81